Time;durP1;ratioP1;P1;durP2;ratioP2;P2;SDS_P1;SDS_P2;PMS_P1;PMS_P2;Temp;Humidity;BMP_temperature;BMP_pressure;BME280_temperature;BME280_humidity;BME280_pressure;Samples;Min_cycle;Max_cycle;Signal;HPM_P1;HPM_P2
2021/09/15 00:02:19;;;;;;;4.68;4.22;;;16.00;99.90;;;;;;5039080;28;20497;-51
2021/09/15 00:04:44;;;;;;;4.32;3.92;;;16.00;99.90;;;;;;5038616;28;20387;-55
2021/09/15 00:07:10;;;;;;;6.25;4.38;;;16.00;99.90;;;;;;5045020;28;20032;-51
2021/09/15 00:09:36;;;;;;;4.80;4.05;;;16.00;99.90;;;;;;5018119;28;20415;-53
2021/09/15 00:12:01;;;;;;;4.63;4.18;;;16.00;99.90;;;;;;5027790;28;20139;-55
2021/09/15 00:14:27;;;;;;;5.28;4.45;;;16.00;99.90;;;;;;5037344;28;20037;-50
2021/09/15 00:16:53;;;;;;;5.25;3.85;;;16.00;99.90;;;;;;5045459;28;20029;-52
2021/09/15 00:19:18;;;;;;;4.53;4.13;;;16.00;99.90;;;;;;5037917;28;20578;-51
2021/09/15 00:21:44;;;;;;;5.40;4.25;;;16.00;99.90;;;;;;5033482;28;20105;-53
2021/09/15 00:24:10;;;;;;;4.53;3.85;;;16.00;99.90;;;;;;5044366;28;20033;-54
2021/09/15 00:26:35;;;;;;;4.03;3.63;;;16.00;99.90;;;;;;5037978;28;20026;-51
2021/09/15 00:29:01;;;;;;;4.13;3.70;;;16.00;99.90;;;;;;5040653;28;20018;-51
2021/09/15 00:31:26;;;;;;;4.72;4.13;;;16.00;99.90;;;;;;5041944;28;20028;-51
2021/09/15 00:33:52;;;;;;;6.00;4.63;;;16.00;99.90;;;;;;5039959;28;20116;-53
2021/09/15 00:36:18;;;;;;;4.72;4.22;;;16.00;99.90;;;;;;5038287;28;20487;-53
2021/09/15 00:38:43;;;;;;;5.65;4.22;;;16.00;99.90;;;;;;5033943;28;20018;-53
2021/09/15 00:41:09;;;;;;;4.88;4.40;;;16.00;99.90;;;;;;5039757;28;20049;-52
2021/09/15 00:44:02;;;;;;;5.45;4.63;;;16.00;99.90;;;;;;5041503;28;20028;-51
2021/09/15 00:46:28;;;;;;;4.50;4.10;;;15.90;99.90;;;;;;5032494;28;20429;-51
2021/09/15 00:48:54;;;;;;;6.15;4.25;;;15.90;99.90;;;;;;5037942;28;20387;-52
2021/09/15 00:51:20;;;;;;;5.63;4.68;;;15.90;99.90;;;;;;5043408;28;20029;-53
2021/09/15 00:53:46;;;;;;;4.82;4.43;;;15.90;99.90;;;;;;5032134;28;20026;-51
2021/09/15 00:56:12;;;;;;;7.45;4.70;;;15.90;99.90;;;;;;5042966;28;20078;-50
2021/09/15 00:58:38;;;;;;;5.05;4.63;;;15.90;99.90;;;;;;5036504;28;20101;-51
2021/09/15 01:01:03;;;;;;;5.60;4.47;;;15.90;99.90;;;;;;5036253;28;20025;-53
2021/09/15 01:03:29;;;;;;;6.72;4.70;;;15.90;99.90;;;;;;5004607;28;20033;-48
2021/09/15 01:05:55;;;;;;;5.65;4.47;;;15.90;99.90;;;;;;5023529;28;20368;-55
2021/09/15 01:08:22;;;;;;;5.35;4.85;;;15.90;99.90;;;;;;5040848;28;20098;-50
2021/09/15 01:10:48;;;;;;;7.20;5.00;;;15.90;99.90;;;;;;5045362;28;20031;-52
2021/09/15 01:13:14;;;;;;;5.30;4.88;;;15.80;99.90;;;;;;5042603;28;20488;-54
2021/09/15 01:15:40;;;;;;;9.63;5.28;;;15.80;99.90;;;;;;5045320;28;20021;-52
2021/09/15 01:18:17;;;;;;;6.13;4.80;;;15.80;99.90;;;;;;5043541;28;20090;-53
2021/09/15 01:20:43;;;;;;;5.18;4.60;;;15.80;99.90;;;;;;5041286;28;20118;-51
2021/09/15 01:23:09;;;;;;;6.72;5.05;;;15.80;99.90;;;;;;5042949;28;20120;-53
2021/09/15 01:25:34;;;;;;;8.02;5.40;;;15.80;99.90;;;;;;5065747;22;20072;-48
2021/09/15 01:28:00;;;;;;;8.38;4.90;;;15.80;99.90;;;;;;5043971;28;20021;-49
2021/09/15 01:30:25;;;;;;;5.50;5.00;;;15.70;99.90;;;;;;5041246;28;20037;-51
2021/09/15 01:32:51;;;;;;;5.53;4.95;;;15.80;99.90;;;;;;5029563;28;20032;-51
2021/09/15 01:35:17;;;;;;;6.70;4.88;;;15.70;99.90;;;;;;5041165;28;20025;-48
2021/09/15 01:37:43;;;;;;;6.13;5.53;;;15.80;99.90;;;;;;5047439;28;20056;-48
2021/09/15 01:40:09;;;;;;;5.95;5.35;;;15.70;99.90;;;;;;5042776;28;20025;-51
2021/09/15 01:42:34;;;;;;;6.45;4.47;;;15.70;99.90;;;;;;5040485;28;20030;-54
2021/09/15 01:45:00;;;;;;;5.90;4.28;;;15.70;99.90;;;;;;5044592;28;20744;-50
2021/09/15 01:47:26;;;;;;;5.70;5.07;;;15.70;99.90;;;;;;5038504;28;20094;-55
2021/09/15 01:49:51;;;;;;;6.47;5.28;;;15.70;99.90;;;;;;5046284;28;20021;-55
2021/09/15 01:52:17;;;;;;;6.00;4.97;;;15.70;99.90;;;;;;5041267;28;20033;-53
2021/09/15 01:54:45;;;;;;;7.55;5.85;;;15.70;99.90;;;;;;5046760;28;20032;-54
2021/09/15 01:57:11;;;;;;;7.07;5.65;;;15.70;99.90;;;;;;5042232;28;20063;-49
2021/09/15 01:59:37;;;;;;;5.43;4.93;;;15.70;99.90;;;;;;5040595;28;20053;-50
2021/09/15 02:02:03;;;;;;;5.57;5.03;;;15.70;99.90;;;;;;5048010;28;20025;-53
2021/09/15 02:04:28;;;;;;;5.82;5.25;;;15.70;99.90;;;;;;5044010;28;20034;-56
2021/09/15 02:06:54;;;;;;;5.43;4.93;;;15.70;99.90;;;;;;5048272;28;20108;-54
2021/09/15 02:09:20;;;;;;;6.43;5.32;;;15.70;99.90;;;;;;5040444;28;20025;-57
2021/09/15 02:11:46;;;;;;;6.45;5.22;;;15.70;99.90;;;;;;5040612;28;20029;-54
2021/09/15 02:14:12;;;;;;;6.20;5.60;;;15.70;99.90;;;;;;5046373;28;20087;-51
2021/09/15 02:16:38;;;;;;;6.43;5.82;;;15.70;99.90;;;;;;5040125;28;20036;-52
2021/09/15 02:19:03;;;;;;;5.88;5.28;;;15.70;99.90;;;;;;5047575;28;20033;-52
2021/09/15 02:21:29;;;;;;;7.90;5.55;;;15.70;99.90;;;;;;5039512;28;20029;-52
2021/09/15 02:23:55;;;;;;;6.72;5.28;;;15.70;99.90;;;;;;5047626;28;20083;-54
2021/09/15 02:26:21;;;;;;;7.07;5.50;;;15.70;99.90;;;;;;5034880;28;20023;-51
2021/09/15 02:28:47;;;;;;;6.07;5.47;;;15.60;99.90;;;;;;5040698;28;20029;-52
2021/09/15 02:31:13;;;;;;;6.75;5.05;;;15.60;99.90;;;;;;5046748;28;20025;-54
2021/09/15 02:33:39;;;;;;;7.50;5.50;;;15.60;99.90;;;;;;5040005;28;20029;-50
2021/09/15 02:36:05;;;;;;;6.63;5.63;;;15.60;99.90;;;;;;5047300;28;20025;-50
2021/09/15 02:38:31;;;;;;;7.00;5.43;;;15.60;99.90;;;;;;5039639;28;20028;-52
2021/09/15 02:40:56;;;;;;;7.03;5.95;;;15.60;99.90;;;;;;5048437;28;20028;-55
2021/09/15 02:43:22;;;;;;;6.03;4.72;;;15.60;99.90;;;;;;5039990;28;20045;-50
2021/09/15 02:45:47;;;;;;;8.57;5.78;;;15.60;99.90;;;;;;5039867;28;20030;-50
2021/09/15 02:48:13;;;;;;;6.70;5.47;;;15.60;99.90;;;;;;5028531;28;20031;-51
2021/09/15 02:50:39;;;;;;;8.45;5.55;;;15.60;99.90;;;;;;5039808;28;20096;-52
2021/09/15 02:53:04;;;;;;;5.95;5.35;;;15.60;99.90;;;;;;5047238;28;20044;-53
2021/09/15 02:55:30;;;;;;;6.38;5.25;;;15.60;99.90;;;;;;5039357;28;20096;-53
2021/09/15 02:57:56;;;;;;;7.53;5.50;;;15.60;99.90;;;;;;5040164;28;20024;-54
2021/09/15 03:00:21;;;;;;;7.32;5.82;;;15.60;99.90;;;;;;5034267;28;20017;-50
2021/09/15 03:02:47;;;;;;;6.25;5.65;;;15.60;99.90;;;;;;5039705;28;20030;-50
2021/09/15 03:05:12;;;;;;;6.47;5.85;;;15.50;99.90;;;;;;5023748;28;20025;-53
2021/09/15 03:07:38;;;;;;;8.18;6.10;;;15.50;99.90;;;;;;5045338;28;20480;-52
2021/09/15 03:10:07;;;;;;;6.78;5.90;;;15.50;99.90;;;;;;5040865;28;20029;-55
2021/09/15 03:12:33;;;;;;;8.13;5.93;;;15.60;99.90;;;;;;5042843;28;20032;-52
2021/09/15 03:14:59;;;;;;;6.57;5.93;;;15.50;99.90;;;;;;5040782;28;20021;-54
2021/09/15 03:17:24;;;;;;;8.13;6.13;;;15.50;99.90;;;;;;5025213;28;20037;-56
2021/09/15 03:19:50;;;;;;;7.40;6.60;;;15.50;99.90;;;;;;5042763;28;20025;-52
2021/09/15 03:22:16;;;;;;;7.20;6.38;;;15.50;99.90;;;;;;5042306;28;20028;-51
2021/09/15 03:24:42;;;;;;;7.45;6.75;;;15.40;99.90;;;;;;5044286;28;20044;-50
2021/09/15 03:27:07;;;;;;;7.05;6.05;;;15.40;99.90;;;;;;5041239;28;20033;-53
2021/09/15 03:29:33;;;;;;;8.50;6.03;;;15.40;99.90;;;;;;5042919;28;20111;-57
2021/09/15 03:31:59;;;;;;;7.07;6.38;;;15.40;99.90;;;;;;5039958;28;20091;-53
2021/09/15 03:34:25;;;;;;;9.02;6.78;;;15.40;99.90;;;;;;5042267;28;20422;-54
2021/09/15 03:36:51;;;;;;;8.82;6.82;;;15.40;99.90;;;;;;5042182;28;20032;-50
2021/09/15 03:39:16;;;;;;;6.72;6.03;;;15.40;99.90;;;;;;5042168;28;20039;-54
2021/09/15 03:41:42;;;;;;;7.45;6.35;;;15.40;99.90;;;;;;5044250;28;20367;-54
2021/09/15 03:44:08;;;;;;;8.75;6.72;;;15.30;99.90;;;;;;5040691;28;20377;-54
2021/09/15 03:46:34;;;;;;;8.85;6.70;;;15.30;99.90;;;;;;5024411;28;20139;-53
2021/09/15 03:49:00;;;;;;;8.20;6.82;;;15.30;99.90;;;;;;5040317;28;20052;-53
2021/09/15 03:51:26;;;;;;;7.88;6.10;;;15.30;99.90;;;;;;5041606;28;20487;-55
2021/09/15 03:53:52;;;;;;;8.45;7.22;;;15.30;99.90;;;;;;5023865;28;20025;-56
2021/09/15 03:56:18;;;;;;;7.60;6.85;;;15.20;99.90;;;;;;5041493;28;20025;-55
2021/09/15 03:58:44;;;;;;;10.10;7.00;;;15.20;99.90;;;;;;5041670;28;20031;-52
2021/09/15 04:01:10;;;;;;;7.35;6.63;;;15.20;99.90;;;;;;5040816;28;20386;-56
2021/09/15 04:03:37;;;;;;;11.95;7.38;;;15.20;99.90;;;;;;5042010;28;20028;-56
2021/09/15 04:06:03;;;;;;;8.45;6.85;;;15.20;99.90;;;;;;5041557;28;20039;-55
2021/09/15 04:08:28;;;;;;;8.10;7.28;;;15.20;99.90;;;;;;5041979;28;20109;-55
2021/09/15 04:10:54;;;;;;;7.57;6.82;;;15.10;99.90;;;;;;5042037;28;20176;-51
2021/09/15 04:13:19;;;;;;;7.65;6.95;;;15.10;99.90;;;;;;5039866;28;20506;-55
2021/09/15 04:15:45;;;;;;;12.38;8.13;;;15.10;99.90;;;;;;5041780;28;20025;-54
2021/09/15 04:18:14;;;;;;;8.00;7.25;;;15.10;99.90;;;;;;5022913;28;20100;-56
2021/09/15 04:20:41;;;;;;;9.85;7.00;;;15.00;99.90;;;;;;5041959;28;20515;-52
2021/09/15 04:23:48;;;;;;;11.07;8.10;;;15.10;99.90;;;;;;5041475;28;20025;-54
2021/09/15 04:31:27;;;;;;;10.00;6.55;;;15.10;99.90;;;;;;5032500;28;20135;-52
2021/09/15 04:33:54;;;;;;;9.40;7.90;;;15.10;99.90;;;;;;5037714;28;20013;-52
2021/09/15 04:36:21;;;;;;;10.13;7.95;;;15.10;99.90;;;;;;5026885;28;20087;-52
2021/09/15 04:38:48;;;;;;;11.90;8.07;;;15.10;99.90;;;;;;5037330;28;20390;-51
2021/09/15 04:41:14;;;;;;;7.75;6.95;;;15.10;99.90;;;;;;5046014;28;20025;-51
2021/09/15 04:43:40;;;;;;;9.38;7.72;;;15.10;99.90;;;;;;5037368;28;20034;-50
2021/09/15 04:46:06;;;;;;;8.80;7.93;;;15.10;99.90;;;;;;5039061;28;20037;-52
2021/09/15 04:48:32;;;;;;;9.02;8.13;;;15.00;99.90;;;;;;5025053;28;20032;-52
2021/09/15 04:50:57;;;;;;;8.73;7.68;;;15.00;99.90;;;;;;5038343;28;20022;-53
2021/09/15 04:53:24;;;;;;;9.60;8.60;;;15.00;99.90;;;;;;5045105;28;20511;-48
2021/09/15 04:55:50;;;;;;;9.63;8.32;;;15.00;99.90;;;;;;5037057;28;20026;-49
2021/09/15 04:58:15;;;;;;;9.52;8.63;;;15.00;99.90;;;;;;5040697;28;20060;-50
2021/09/15 05:00:41;;;;;;;8.52;7.60;;;15.00;99.90;;;;;;5041110;28;20045;-46
2021/09/15 05:03:07;;;;;;;8.45;7.43;;;15.00;99.90;;;;;;5039341;28;20491;-47
2021/09/15 05:05:32;;;;;;;9.25;8.00;;;15.00;99.90;;;;;;5040869;28;20061;-47
2021/09/15 05:07:58;;;;;;;8.90;8.02;;;15.00;99.90;;;;;;5040510;28;20447;-51
2021/09/15 05:10:26;;;;;;;8.90;8.10;;;15.00;99.90;;;;;;5040999;28;20025;-49
2021/09/15 05:12:53;;;;;;;9.05;8.00;;;15.00;99.90;;;;;;5039639;28;20052;-55
2021/09/15 05:15:19;;;;;;;8.70;7.82;;;15.00;99.90;;;;;;5040325;28;20060;-48
2021/09/15 05:17:45;;;;;;;8.98;8.07;;;14.90;99.90;;;;;;5041099;28;20522;-51
2021/09/15 05:20:12;;;;;;;9.40;8.35;;;15.00;99.90;;;;;;5021870;28;20026;-50
2021/09/15 05:22:38;;;;;;;10.23;8.70;;;14.90;99.90;;;;;;5040784;28;20025;-51
2021/09/15 05:25:04;;;;;;;8.70;7.78;;;15.00;99.90;;;;;;5040266;28;20118;-48
2021/09/15 05:27:29;;;;;;;10.75;8.65;;;15.00;99.90;;;;;;5041050;28;20482;-50
2021/09/15 05:29:55;;;;;;;9.90;8.30;;;15.00;99.90;;;;;;5039438;28;20033;-48
2021/09/15 05:32:21;;;;;;;9.30;8.38;;;15.00;99.90;;;;;;5040955;28;20052;-51
2021/09/15 05:34:46;;;;;;;10.30;7.72;;;14.90;99.90;;;;;;5040639;28;20021;-48
2021/09/15 05:37:12;;;;;;;9.80;8.18;;;15.00;99.90;;;;;;5021769;28;20024;-48
2021/09/15 05:39:37;;;;;;;12.50;9.38;;;15.00;99.90;;;;;;5040897;28;20029;-49
2021/09/15 05:42:03;;;;;;;11.95;8.98;;;14.90;99.90;;;;;;5040405;28;20088;-51
2021/09/15 05:44:29;;;;;;;8.32;7.38;;;14.90;99.90;;;;;;5040478;28;20036;-50
2021/09/15 05:46:54;;;;;;;8.77;7.90;;;14.90;99.90;;;;;;5039210;28;20025;-50
2021/09/15 05:49:20;;;;;;;10.40;8.43;;;15.00;99.90;;;;;;5040868;28;20092;-48
2021/09/15 05:51:46;;;;;;;9.43;7.88;;;14.90;99.90;;;;;;5041017;28;20017;-50
2021/09/15 05:54:11;;;;;;;9.88;8.77;;;15.00;99.90;;;;;;5039825;28;20031;-50
2021/09/15 05:56:38;;;;;;;9.43;8.07;;;14.90;99.90;;;;;;5043087;28;20554;-52
2021/09/15 05:59:04;;;;;;;11.88;8.35;;;15.00;99.90;;;;;;5042064;28;20014;-48
2021/09/15 06:01:29;;;;;;;10.82;8.38;;;14.90;99.90;;;;;;5044386;28;20048;-56
2021/09/15 06:03:55;;;;;;;11.25;8.70;;;15.00;99.90;;;;;;5026074;28;20032;-51
2021/09/15 06:06:20;;;;;;;11.23;8.45;;;15.00;99.90;;;;;;5043283;28;20206;-49
2021/09/15 06:08:46;;;;;;;12.40;9.30;;;15.00;99.90;;;;;;5043830;28;20387;-50
2021/09/15 06:11:11;;;;;;;10.35;9.00;;;15.00;99.90;;;;;;5041503;28;20495;-50
2021/09/15 06:13:37;;;;;;;9.98;8.98;;;15.00;99.90;;;;;;5044086;28;20490;-50
2021/09/15 06:16:06;;;;;;;9.43;8.43;;;15.00;99.90;;;;;;5024505;28;20029;-49
2021/09/15 06:18:33;;;;;;;10.43;8.85;;;15.00;99.90;;;;;;5044198;28;20021;-49
2021/09/15 06:20:59;;;;;;;11.30;9.13;;;15.10;99.90;;;;;;5043343;28;20522;-48
2021/09/15 06:23:24;;;;;;;13.18;8.50;;;15.10;99.90;;;;;;5043760;28;20057;-48
2021/09/15 06:25:50;;;;;;;9.15;8.18;;;15.10;99.90;;;;;;5043434;28;20048;-51
2021/09/15 06:28:16;;;;;;;10.52;8.90;;;15.10;99.90;;;;;;5040904;28;20032;-49
2021/09/15 06:30:41;;;;;;;9.02;7.75;;;15.10;99.90;;;;;;5044899;28;20032;-49
2021/09/15 06:33:08;;;;;;;11.00;8.68;;;15.10;99.90;;;;;;5041909;28;20025;-49
2021/09/15 06:35:33;;;;;;;9.10;8.15;;;15.20;99.90;;;;;;5037363;28;20045;-48
2021/09/15 06:37:59;;;;;;;9.30;8.40;;;15.20;99.90;;;;;;5042755;28;20056;-49
2021/09/15 06:40:25;;;;;;;11.85;8.68;;;15.30;99.90;;;;;;5043612;28;20163;-47
2021/09/15 06:42:50;;;;;;;9.88;8.10;;;15.30;99.90;;;;;;5043206;28;20032;-50
2021/09/15 06:45:16;;;;;;;8.95;8.05;;;15.30;99.90;;;;;;5039933;28;20030;-52
2021/09/15 06:47:44;;;;;;;9.70;8.20;;;15.30;99.90;;;;;;5044442;28;20487;-49
2021/09/15 06:50:12;;;;;;;8.40;7.57;;;15.40;99.90;;;;;;5040962;28;20037;-50
2021/09/15 06:52:37;;;;;;;9.55;8.57;;;15.40;99.90;;;;;;5044601;28;20024;-49
2021/09/15 06:55:04;;;;;;;12.43;8.23;;;15.50;99.90;;;;;;5041513;28;20466;-52
2021/09/15 06:57:30;;;;;;;10.13;8.48;;;15.50;99.90;;;;;;5039777;28;20099;-49
2021/09/15 06:59:55;;;;;;;9.20;8.32;;;15.50;99.90;;;;;;5027862;28;20491;-49
2021/09/15 07:02:21;;;;;;;8.57;7.72;;;15.50;99.90;;;;;;5036232;28;20021;-53
2021/09/15 07:04:47;;;;;;;9.65;8.32;;;15.50;99.90;;;;;;5020970;28;20076;-48
2021/09/15 07:07:12;;;;;;;9.88;8.60;;;15.60;99.90;;;;;;5029363;28;20052;-49
2021/09/15 07:09:38;;;;;;;10.05;8.65;;;15.60;99.90;;;;;;5039327;28;20026;-51
2021/09/15 07:12:03;;;;;;;10.70;7.88;;;15.60;99.90;;;;;;5040624;28;20033;-53
2021/09/15 07:14:29;;;;;;;8.82;7.97;;;15.60;99.90;;;;;;5044019;28;20026;-53
2021/09/15 07:16:55;;;;;;;8.32;7.57;;;15.60;99.90;;;;;;5039303;28;20017;-50
2021/09/15 07:19:20;;;;;;;8.98;8.18;;;15.60;99.90;;;;;;5046381;28;20566;-50
2021/09/15 07:21:46;;;;;;;12.35;8.05;;;15.50;99.90;;;;;;5039123;28;20017;-50
2021/09/15 07:24:11;;;;;;;10.48;8.40;;;15.60;99.90;;;;;;5071211;22;20608;-50
2021/09/15 07:26:37;;;;;;;13.02;9.55;;;15.50;99.90;;;;;;5041269;28;20126;-51
2021/09/15 07:29:02;;;;;;;10.25;9.15;;;15.60;99.90;;;;;;5039754;28;20100;-51
2021/09/15 07:31:28;;;;;;;11.60;8.77;;;15.50;99.90;;;;;;5045061;28;20033;-53
2021/09/15 07:33:53;;;;;;;12.55;8.45;;;15.50;99.90;;;;;;5039427;28;20026;-51
2021/09/15 07:36:19;;;;;;;10.50;9.40;;;15.50;99.90;;;;;;5046493;28;20463;-51
2021/09/15 07:38:45;;;;;;;10.38;9.27;;;15.50;99.90;;;;;;5039128;28;20025;-53
2021/09/15 07:41:10;;;;;;;10.27;9.27;;;15.50;99.90;;;;;;5047499;28;20060;-52
2021/09/15 07:43:36;;;;;;;10.18;8.85;;;15.40;99.90;;;;;;5039144;28;20059;-51
2021/09/15 07:46:02;;;;;;;10.77;9.05;;;15.40;99.90;;;;;;5039656;28;20064;-50
2021/09/15 07:48:27;;;;;;;9.23;8.18;;;15.50;99.90;;;;;;5044670;28;20084;-50
2021/09/15 07:50:53;;;;;;;10.40;9.23;;;15.50;99.90;;;;;;5038942;28;20025;-52
2021/09/15 07:53:19;;;;;;;9.00;8.15;;;15.50;99.90;;;;;;5046433;28;20033;-53
2021/09/15 07:55:45;;;;;;;9.10;8.20;;;15.50;99.90;;;;;;5020724;28;20017;-52
2021/09/15 07:58:10;;;;;;;12.90;8.73;;;15.50;99.90;;;;;;5041066;28;20080;-51
2021/09/15 08:00:36;;;;;;;10.20;9.20;;;15.50;99.90;;;;;;5024866;28;20021;-50
2021/09/15 08:03:02;;;;;;;11.27;8.95;;;15.50;99.90;;;;;;5039551;28;20052;-51
2021/09/15 08:05:27;;;;;;;9.93;8.93;;;15.60;99.90;;;;;;5041817;28;20029;-51
2021/09/15 08:07:53;;;;;;;11.68;9.25;;;15.60;99.90;;;;;;5042251;28;20037;-50
2021/09/15 08:10:18;;;;;;;12.73;10.20;;;15.60;99.90;;;;;;5023971;28;20112;-50
2021/09/15 08:12:44;;;;;;;11.30;9.95;;;15.60;99.90;;;;;;5041799;28;20783;-51
2021/09/15 08:15:10;;;;;;;12.35;9.43;;;15.60;99.90;;;;;;5040200;28;20018;-51
2021/09/15 08:17:38;;;;;;;10.98;9.20;;;15.60;99.90;;;;;;5041792;28;20032;-50
2021/09/15 08:20:04;;;;;;;10.35;9.38;;;15.60;99.90;;;;;;5022507;28;20025;-49
2021/09/15 08:22:30;;;;;;;10.75;9.65;;;15.60;99.90;;;;;;5042059;28;20017;-49
2021/09/15 08:24:56;;;;;;;10.63;9.52;;;15.60;99.90;;;;;;5041076;28;20388;-49
2021/09/15 08:27:21;;;;;;;11.15;9.98;;;15.60;99.90;;;;;;5041943;28;20475;-49
2021/09/15 08:29:47;;;;;;;10.45;9.45;;;15.60;99.90;;;;;;5041568;28;20029;-48
2021/09/15 08:32:12;;;;;;;10.65;9.45;;;15.60;99.90;;;;;;5040775;28;20113;-50
2021/09/15 08:34:38;;;;;;;11.23;9.60;;;15.50;99.90;;;;;;5041322;28;20029;-49
2021/09/15 08:37:03;;;;;;;12.02;10.23;;;15.50;99.90;;;;;;5040618;28;20030;-50
2021/09/15 08:39:29;;;;;;;11.68;9.90;;;15.60;99.90;;;;;;5041669;28;20103;-49
2021/09/15 08:41:54;;;;;;;11.20;9.95;;;15.50;99.90;;;;;;5039144;28;20048;-50
2021/09/15 08:44:21;;;;;;;11.32;10.15;;;15.60;99.90;;;;;;5041450;28;20029;-48
2021/09/15 08:46:47;;;;;;;13.25;10.57;;;15.50;99.90;;;;;;5022755;28;20029;-47
2021/09/15 08:49:12;;;;;;;11.52;10.30;;;15.50;99.90;;;;;;5040310;28;20108;-48
2021/09/15 08:51:38;;;;;;;13.27;10.63;;;15.50;99.90;;;;;;5023698;28;20129;-48
2021/09/15 08:54:04;;;;;;;13.20;11.02;;;15.50;99.90;;;;;;5040411;28;20025;-48
2021/09/15 08:56:30;;;;;;;12.07;10.73;;;15.50;99.90;;;;;;5041226;28;20020;-49
2021/09/15 08:58:56;;;;;;;14.20;10.48;;;15.50;99.90;;;;;;5039212;28;20021;-48
2021/09/15 09:01:24;;;;;;;11.18;10.13;;;15.60;99.90;;;;;;5041637;28;20013;-50
2021/09/15 09:03:52;;;;;;;12.32;10.18;;;15.60;99.90;;;;;;5041357;28;20032;-49
2021/09/15 09:06:23;;;;;;;12.13;10.70;;;15.70;99.90;;;;;;5040722;28;20028;-50
2021/09/15 09:08:53;;;;;;;13.05;11.13;;;15.70;99.90;;;;;;5041422;28;20070;-48
2021/09/15 09:11:21;;;;;;;12.32;10.38;;;15.70;99.90;;;;;;5038063;28;20100;-48
2021/09/15 09:13:50;;;;;;;13.82;11.73;;;15.80;99.90;;;;;;5042742;28;20026;-50
2021/09/15 09:16:19;;;;;;;11.27;10.18;;;15.80;99.90;;;;;;5038397;28;20514;-50
2021/09/15 09:18:58;;;;;;;13.45;11.48;;;15.80;99.90;;;;;;5043605;28;20036;-48
2021/09/15 09:21:29;;;;;;;11.60;9.75;;;15.80;99.90;;;;;;5033323;28;20411;-49
2021/09/15 09:23:56;;;;;;;11.68;10.50;;;15.90;99.90;;;;;;5026849;28;20029;-50
2021/09/15 09:26:22;;;;;;;13.32;11.43;;;15.80;99.90;;;;;;5031859;28;20121;-48
2021/09/15 09:28:47;;;;;;;11.75;10.55;;;15.80;99.90;;;;;;5038020;28;20049;-50
2021/09/15 09:31:13;;;;;;;12.48;11.20;;;15.80;99.90;;;;;;5047924;28;20029;-49
2021/09/15 09:33:39;;;;;;;13.90;10.52;;;15.90;99.90;;;;;;5041275;28;20021;-50
2021/09/15 09:36:09;;;;;;;12.95;10.98;;;15.80;99.90;;;;;;5048501;28;20523;-52
2021/09/15 09:38:42;;;;;;;12.10;10.90;;;15.80;99.90;;;;;;5045485;28;20167;-49
2021/09/15 09:41:12;;;;;;;12.50;11.30;;;15.90;99.90;;;;;;5042904;28;20556;-48
2021/09/15 09:43:45;;;;;;;14.88;11.73;;;15.90;99.90;;;;;;5044619;28;20072;-48
2021/09/15 09:46:12;;;;;;;12.75;11.23;;;15.90;99.90;;;;;;5043185;28;20090;-49
2021/09/15 09:48:46;;;;;;;11.93;10.65;;;15.90;99.90;;;;;;5045512;28;20030;-51
2021/09/15 09:51:29;;;;;;;12.57;11.23;;;15.90;99.90;;;;;;5043478;28;20040;-48
2021/09/15 09:54:12;;;;;;;14.85;12.23;;;15.90;99.90;;;;;;5043811;28;20031;-48
2021/09/15 09:56:42;;;;;;;12.15;10.95;;;15.90;99.90;;;;;;5035529;28;20025;-48
2021/09/15 09:59:09;;;;;;;15.95;11.50;;;15.90;99.90;;;;;;5042191;28;20017;-47
2021/09/15 10:01:41;;;;;;;13.65;12.30;;;15.90;99.90;;;;;;5044356;28;20021;-48
2021/09/15 10:04:07;;;;;;;15.07;13.40;;;15.90;99.90;;;;;;5042796;28;20037;-49
2021/09/15 10:06:35;;;;;;;12.95;11.52;;;15.90;99.90;;;;;;5045600;28;20112;-48
2021/09/15 10:09:02;;;;;;;13.88;12.43;;;16.00;99.90;;;;;;5043159;28;20045;-48
2021/09/15 10:11:28;;;;;;;12.65;11.48;;;16.00;99.90;;;;;;5023033;28;20044;-48
2021/09/15 10:13:54;;;;;;;14.43;12.88;;;16.00;99.90;;;;;;5046788;28;20033;-48
2021/09/15 10:16:22;;;;;;;14.25;12.00;;;16.00;99.90;;;;;;5040728;28;20022;-48
2021/09/15 10:19:00;;;;;;;13.02;11.63;;;16.00;99.90;;;;;;5046956;28;20087;-48
2021/09/15 10:21:29;;;;;;;15.23;12.68;;;16.00;99.90;;;;;;5036535;28;20021;-48
2021/09/15 10:23:54;;;;;;;17.10;13.48;;;16.00;99.90;;;;;;5047607;28;20026;-48
2021/09/15 10:26:38;;;;;;;18.05;13.05;;;16.10;99.90;;;;;;5040398;28;20614;-48
2021/09/15 10:29:19;;;;;;;14.43;12.98;;;16.10;99.90;;;;;;5041718;28;20032;-49
2021/09/15 10:32:05;;;;;;;13.57;11.95;;;16.10;99.90;;;;;;5043680;28;20021;-48
2021/09/15 10:34:40;;;;;;;16.05;13.05;;;16.10;99.90;;;;;;5014410;28;20071;-47
2021/09/15 10:37:11;;;;;;;13.35;11.52;;;16.20;99.90;;;;;;5042834;28;20013;-48
2021/09/15 10:39:56;;;;;;;14.35;12.80;;;16.20;99.90;;;;;;5043797;28;20044;-48
2021/09/15 10:42:34;;;;;;;15.35;13.23;;;16.20;99.90;;;;;;5014981;28;20025;-50
2021/09/15 10:45:18;;;;;;;14.48;12.98;;;16.20;99.90;;;;;;5042727;28;20021;-49
2021/09/15 10:47:59;;;;;;;15.00;11.82;;;16.20;99.90;;;;;;5039823;28;20119;-48
2021/09/15 10:50:28;;;;;;;16.35;14.32;;;16.20;99.90;;;;;;5036543;28;20033;-49
2021/09/15 10:53:09;;;;;;;15.27;13.55;;;16.20;99.90;;;;;;5047325;28;20100;-50
2021/09/15 10:55:46;;;;;;;17.38;13.77;;;16.30;99.90;;;;;;5036597;28;20030;-49
2021/09/15 10:58:19;;;;;;;18.98;13.75;;;16.30;99.90;;;;;;5042288;28;20035;-48
2021/09/15 11:00:54;;;;;;;15.43;13.38;;;16.30;99.90;;;;;;5042564;28;20101;-49
2021/09/15 11:03:50;;;;;;;14.82;13.43;;;16.30;99.90;;;;;;5042962;28;20418;-53
2021/09/15 11:06:17;;;;;;;15.05;13.50;;;16.40;99.90;;;;;;5042872;28;20034;-49
2021/09/15 11:08:45;;;;;;;16.42;14.73;;;16.40;99.90;;;;;;5043276;28;20593;-49
2021/09/15 11:11:34;;;;;;;22.60;14.23;;;16.40;99.90;;;;;;5040880;28;20487;-49
2021/09/15 11:14:07;;;;;;;15.73;14.15;;;16.50;99.90;;;;;;5032228;28;20064;-48
2021/09/15 11:16:41;;;;;;;15.50;13.90;;;16.50;99.90;;;;;;5039233;28;20018;-49
2021/09/15 11:19:15;;;;;;;13.68;12.38;;;16.50;99.90;;;;;;5046368;28;20501;-49
2021/09/15 11:21:48;;;;;;;17.13;14.65;;;16.50;99.90;;;;;;5039589;28;20021;-49
2021/09/15 11:24:20;;;;;;;15.23;13.52;;;16.60;99.90;;;;;;5047151;28;20116;-50
2021/09/15 11:26:54;;;;;;;15.32;13.60;;;16.60;99.90;;;;;;5039199;28;20013;-49
2021/09/15 11:29:42;;;;;;;15.48;13.77;;;16.60;99.90;;;;;;5042586;28;20025;-49
2021/09/15 11:32:12;;;;;;;15.50;13.23;;;16.70;99.90;;;;;;5022894;28;20184;-51
2021/09/15 11:34:52;;;;;;;17.15;14.07;;;16.70;99.90;;;;;;5042257;28;20421;-50
2021/09/15 11:37:24;;;;;;;16.83;13.63;;;16.80;99.90;;;;;;5041775;28;20025;-48
2021/09/15 11:39:55;;;;;;;15.98;13.80;;;16.70;99.90;;;;;;5042541;28;20100;-49
2021/09/15 11:42:22;;;;;;;15.52;13.68;;;16.70;99.90;;;;;;5039633;28;20024;-49
2021/09/15 11:44:48;;;;;;;14.68;13.18;;;16.70;99.90;;;;;;5041837;28;20029;-48
2021/09/15 11:47:22;;;;;;;15.65;13.95;;;16.70;99.90;;;;;;5040340;28;20036;-49
2021/09/15 11:49:47;;;;;;;16.27;14.60;;;16.70;99.90;;;;;;5042412;28;20057;-49
2021/09/15 11:52:13;;;;;;;16.60;14.90;;;16.70;99.90;;;;;;5041053;28;20061;-48
2021/09/15 11:54:42;;;;;;;14.75;13.30;;;16.80;99.90;;;;;;5041040;28;20477;-49
2021/09/15 11:57:09;;;;;;;16.98;14.60;;;16.80;99.90;;;;;;5040288;28;20029;-49
2021/09/15 11:59:35;;;;;;;14.80;13.25;;;16.70;99.90;;;;;;5041732;28;20151;-48
2021/09/15 12:02:02;;;;;;;13.32;11.93;;;16.70;99.90;;;;;;5023421;28;20106;-51
2021/09/15 12:04:29;;;;;;;16.17;14.52;;;16.70;99.90;;;;;;5038092;28;20021;-50
2021/09/15 12:06:55;;;;;;;14.30;12.35;;;16.80;99.90;;;;;;5046540;28;20021;-49
2021/09/15 12:09:23;;;;;;;17.23;14.07;;;16.80;99.90;;;;;;5032831;28;20025;-48
2021/09/15 12:11:50;;;;;;;17.88;14.50;;;16.80;99.90;;;;;;5038397;28;20068;-50
2021/09/15 12:14:16;;;;;;;14.30;12.88;;;16.90;99.90;;;;;;5044300;28;20020;-48
2021/09/15 12:16:43;;;;;;;15.30;13.57;;;16.80;99.90;;;;;;5020151;28;20537;-50
2021/09/15 12:19:19;;;;;;;15.80;14.25;;;16.80;99.90;;;;;;5045567;28;20078;-47
2021/09/15 12:21:49;;;;;;;15.85;13.88;;;16.90;99.90;;;;;;5020638;28;20024;-48
2021/09/15 12:24:19;;;;;;;15.93;14.23;;;16.90;99.90;;;;;;5045896;28;20033;-47
2021/09/15 12:26:45;;;;;;;14.20;12.75;;;16.90;99.90;;;;;;5038012;28;20021;-47
2021/09/15 12:29:13;;;;;;;15.18;13.52;;;16.90;99.90;;;;;;5040309;28;20567;-48
2021/09/15 12:31:58;;;;;;;14.48;13.05;;;16.90;99.90;;;;;;5042239;28;20033;-47
2021/09/15 12:34:30;;;;;;;15.32;13.73;;;16.90;99.90;;;;;;5027303;28;20119;-48
2021/09/15 12:37:15;;;;;;;14.95;13.43;;;16.90;99.90;;;;;;5040575;28;20020;-51
2021/09/15 12:39:48;;;;;;;14.35;12.85;;;16.90;99.90;;;;;;5033192;28;20028;-49
2021/09/15 12:42:18;;;;;;;15.65;14.02;;;16.90;99.90;;;;;;5038837;28;20044;-50
2021/09/15 12:44:44;;;;;;;16.35;14.52;;;16.90;99.90;;;;;;5041279;28;20021;-50
2021/09/15 12:47:09;;;;;;;17.38;15.48;;;16.90;99.90;;;;;;5039601;28;20395;-49